D61 weather

Towner Municipal Airport
Towner, North Dakota, United States

Public forecast

Using degrees Fahrenheit for public forecast. Weather courtesy of forecast.io.

METAR (pilot weather report)

Closest report is Rugby Municipal Airport, 14.8 nm (27.4 km) E. Retrieved 2019/07/21 23:35 UTC (0 seconds ago):

KRUG 212335Z AUTO VRB03KT 10SM CLR 21/15 A3023 RMK AO2

TAF (pilot weather forecast)

Closest forecast is Minot International Airport, 36.0 nm (66.6 km) W. Retrieved 2019/07/21 18:33 UTC (5 hours ago):

TAF KMOT 211731Z 2118/2218 VRB05KT P6SM VCTS SCT030CB BKN100 TEMPO 2118/2120 3SM TSRA BKN030CB FM220100 01006KT P6SM FEW045 FEW250